Time;durP1;ratioP1;P1;durP2;ratioP2;P2;SDS_P1;SDS_P2;PMS_P1;PMS_P2;Temp;Humidity;BMP_temperature;BMP_pressure;BME280_temperature;BME280_humidity;BME280_pressure;Samples;Min_cycle;Max_cycle;Signal;HPM_P1;HPM_P2
2021/04/05 00:02:16;;;;;;;27.52;12.30;;;5.90;99.90;;;;;;5030355;28;20041;-73
2021/04/05 00:04:42;;;;;;;37.13;13.20;;;5.70;99.90;;;;;;5032034;28;20061;-73
2021/04/05 00:07:08;;;;;;;29.52;12.50;;;5.50;99.90;;;;;;5046809;28;20096;-73
2021/04/05 00:09:35;;;;;;;32.35;13.00;;;5.50;99.90;;;;;;5031951;28;20490;-73
2021/04/05 00:12:01;;;;;;;25.27;11.07;;;5.50;99.90;;;;;;5031811;28;20057;-73
2021/04/05 00:14:27;;;;;;;29.88;13.00;;;5.40;99.90;;;;;;5034887;28;20075;-73
2021/04/05 00:16:53;;;;;;;48.03;15.80;;;5.30;99.90;;;;;;5050833;28;20029;-73
2021/04/05 00:19:19;;;;;;;35.78;16.00;;;5.40;99.90;;;;;;5035291;28;20026;-73
2021/04/05 00:21:45;;;;;;;40.67;13.85;;;5.30;99.90;;;;;;5050703;28;20036;-73
2021/04/05 00:24:11;;;;;;;33.45;14.48;;;5.30;99.90;;;;;;5035227;28;20034;-73
2021/04/05 00:26:37;;;;;;;38.53;15.30;;;5.30;99.90;;;;;;5035245;28;20124;-73
2021/04/05 00:29:03;;;;;;;40.15;15.40;;;5.40;99.90;;;;;;5034869;28;20034;-73
2021/04/05 00:31:29;;;;;;;36.35;15.80;;;5.40;99.90;;;;;;5035159;28;20044;-73
2021/04/05 00:33:55;;;;;;;40.55;15.27;;;5.30;99.90;;;;;;5050275;28;20038;-73
2021/04/05 00:36:21;;;;;;;38.47;15.77;;;5.30;99.90;;;;;;5050303;28;20068;-73
2021/04/05 00:38:46;;;;;;;39.50;15.35;;;5.30;99.90;;;;;;5035133;28;20037;-73
2021/04/05 00:41:15;;;;;;;36.97;15.75;;;5.30;99.90;;;;;;5033379;28;20116;-73
2021/04/05 00:43:46;;;;;;;43.78;14.93;;;5.20;99.90;;;;;;5049881;28;20482;-73
2021/04/05 00:46:13;;;;;;;;;;;5.20;99.90;;;;;;5035265;28;20037;-73
2021/04/05 00:48:39;;;;;;;40.72;14.27;;;5.10;99.90;;;;;;5034909;28;20008;-73
2021/04/05 00:51:23;;;;;;;34.75;13.75;;;5.00;99.90;;;;;;5034739;28;20033;-73
2021/04/05 00:53:50;;;;;;;38.13;16.58;;;5.00;99.90;;;;;;5034609;28;20029;-73
2021/04/05 00:56:21;;;;;;;39.78;15.18;;;4.90;99.90;;;;;;5034616;28;20112;-73
2021/04/05 00:58:49;;;;;;;44.60;15.25;;;4.90;99.90;;;;;;5034751;28;20025;-73
2021/04/05 01:01:20;;;;;;;36.95;15.13;;;4.90;99.90;;;;;;5034588;28;20064;-73
2021/04/05 01:03:47;;;;;;;;;;;4.80;99.90;;;;;;5033643;28;20452;-72
2021/04/05 01:06:33;;;;;;;36.30;14.25;;;4.80;99.90;;;;;;5034202;28;20631;-72
2021/04/05 01:09:00;;;;;;;34.47;14.55;;;4.90;99.90;;;;;;5034460;28;20131;-73
2021/04/05 01:11:30;;;;;;;43.10;15.77;;;4.90;99.90;;;;;;5049844;28;20044;-73
2021/04/05 01:13:57;;;;;;;40.05;16.60;;;4.80;99.90;;;;;;5049794;28;20057;-73
2021/04/05 01:16:27;;;;;;;38.53;17.13;;;4.80;99.90;;;;;;5049300;28;20470;-73
2021/04/05 01:18:54;;;;;;;39.83;16.65;;;4.80;99.90;;;;;;5033120;28;20041;-73
2021/04/05 01:21:20;;;;;;;38.17;16.33;;;4.70;99.90;;;;;;5049553;28;20037;-73
2021/04/05 01:23:46;;;;;;;38.88;18.40;;;4.70;99.90;;;;;;5049548;28;20033;-73
2021/04/05 01:26:13;;;;;;;43.35;17.23;;;4.70;99.90;;;;;;5034058;28;20052;-73
2021/04/05 01:28:39;;;;;;;35.30;15.02;;;4.70;99.90;;;;;;5034172;28;20030;-73
2021/04/05 01:31:05;;;;;;;28.23;13.15;;;4.70;99.90;;;;;;5033738;28;20470;-73
2021/04/05 01:33:37;;;;;;;32.58;14.65;;;4.70;99.90;;;;;;5033989;28;20022;-73
2021/04/05 01:36:17;;;;;;;31.48;13.25;;;4.70;99.90;;;;;;5049176;28;20040;-73
2021/04/05 01:38:49;;;;;;;36.92;12.80;;;4.70;99.90;;;;;;5033933;28;20083;-72
2021/04/05 01:41:23;;;;;;;29.30;13.93;;;4.70;99.90;;;;;;5049160;28;20539;-73
2021/04/05 01:43:49;;;;;;;34.53;13.48;;;4.70;99.90;;;;;;5048770;28;20051;-73
2021/04/05 01:46:18;;;;;;;32.47;12.80;;;4.60;99.90;;;;;;5033537;28;20120;-72
2021/04/05 01:48:45;;;;;;;29.45;12.65;;;4.60;99.90;;;;;;5048868;28;20033;-73
2021/04/05 01:51:15;;;;;;;32.85;14.15;;;4.60;99.90;;;;;;5048967;28;20026;-73
2021/04/05 01:53:43;;;;;;;30.42;14.73;;;4.50;99.90;;;;;;5033447;28;20033;-73
2021/04/05 01:56:12;;;;;;;31.63;13.25;;;4.50;99.90;;;;;;5033363;28;20120;-73
2021/04/05 01:58:45;;;;;;;28.05;13.13;;;4.50;99.90;;;;;;5033268;28;20030;-73
2021/04/05 02:01:17;;;;;;;34.75;12.77;;;4.40;99.90;;;;;;5031981;28;20075;-73
2021/04/05 02:03:43;;;;;;;28.05;11.35;;;4.30;99.90;;;;;;5048560;28;20057;-73
2021/04/05 02:06:25;;;;;;;31.83;12.02;;;4.30;99.90;;;;;;5048438;28;20060;-73
2021/04/05 02:08:51;;;;;;;;;;;4.20;99.90;;;;;;5033571;28;20057;-73
2021/04/05 02:11:27;;;;;;;29.35;11.05;;;4.10;99.90;;;;;;5032038;28;19913;-73
2021/04/05 02:13:56;;;;;;;24.38;11.25;;;4.20;99.90;;;;;;5048514;28;20036;-73
2021/04/05 02:16:24;;;;;;;29.17;13.20;;;4.10;99.90;;;;;;5047973;28;20044;-73
2021/04/05 02:18:52;;;;;;;26.65;11.52;;;4.20;99.90;;;;;;5048138;28;20397;-73
2021/04/05 02:21:22;;;;;;;22.63;11.05;;;4.20;99.90;;;;;;5033089;28;20060;-73
2021/04/05 02:23:51;;;;;;;32.45;11.82;;;4.20;99.90;;;;;;5033081;28;20030;-73
2021/04/05 02:26:24;;;;;;;26.27;10.75;;;4.20;99.90;;;;;;5047922;28;20033;-73
2021/04/05 02:28:54;;;;;;;23.25;11.38;;;4.20;99.90;;;;;;5031556;28;20124;-73
2021/04/05 02:31:23;;;;;;;20.30;10.60;;;4.10;99.90;;;;;;5032971;28;20113;-73
2021/04/05 02:33:53;;;;;;;28.83;11.07;;;4.10;99.90;;;;;;5047926;28;20025;-73
2021/04/05 02:36:22;;;;;;;20.27;10.38;;;4.00;99.90;;;;;;5047716;28;20044;-73
2021/04/05 02:38:58;;;;;;;26.58;9.82;;;4.00;99.90;;;;;;5032879;28;20037;-73
2021/04/05 02:41:27;;;;;;;25.35;10.57;;;4.00;99.90;;;;;;5047215;28;20025;-73
2021/04/05 02:43:54;;;;;;;23.88;9.82;;;4.00;99.90;;;;;;5032724;28;20438;-73
2021/04/05 02:46:31;;;;;;;23.52;10.57;;;4.00;99.90;;;;;;5031089;28;20055;-73
2021/04/05 02:49:00;;;;;;;31.70;9.63;;;3.90;99.90;;;;;;5048078;28;20021;-73
2021/04/05 02:51:26;;;;;;;21.15;10.57;;;3.90;99.90;;;;;;5047942;28;20033;-73
2021/04/05 02:54:01;;;;;;;30.08;10.48;;;3.90;99.90;;;;;;5032168;28;20072;-73
2021/04/05 02:56:29;;;;;;;20.08;10.02;;;3.90;99.90;;;;;;5047884;28;20112;-73
2021/04/05 02:58:56;;;;;;;25.45;10.02;;;3.90;99.90;;;;;;5047542;28;20037;-73
2021/04/05 03:01:25;;;;;;;23.13;9.20;;;3.90;99.90;;;;;;5032497;28;20036;-73
2021/04/05 03:03:58;;;;;;;24.23;9.85;;;3.90;99.90;;;;;;5032524;28;20030;-73
2021/04/05 03:06:28;;;;;;;22.13;9.75;;;4.00;99.90;;;;;;5032116;28;20057;-73
2021/04/05 03:08:55;;;;;;;23.20;9.93;;;4.10;99.90;;;;;;5047595;28;20030;-73
2021/04/05 03:11:23;;;;;;;23.92;9.88;;;4.10;99.90;;;;;;5047527;28;20371;-73
2021/04/05 03:13:50;;;;;;;22.63;10.13;;;4.00;99.90;;;;;;5031060;28;20033;-73
2021/04/05 03:16:19;;;;;;;27.17;9.43;;;4.00;99.90;;;;;;5031996;28;20486;-73
2021/04/05 03:18:47;;;;;;;18.00;9.23;;;4.00;99.90;;;;;;5032352;28;20059;-73
2021/04/05 03:21:14;;;;;;;25.13;9.32;;;4.00;99.90;;;;;;5032227;28;20043;-72
2021/04/05 03:23:41;;;;;;;20.90;9.73;;;4.00;99.90;;;;;;5032263;28;20030;-73
2021/04/05 03:26:08;;;;;;;23.35;9.55;;;4.00;99.90;;;;;;5032309;28;20360;-73
2021/04/05 03:28:34;;;;;;;22.55;8.70;;;3.90;99.90;;;;;;5032264;28;20034;-73
2021/04/05 03:31:10;;;;;;;22.25;8.00;;;3.90;99.90;;;;;;5047673;28;20060;-73
2021/04/05 03:33:54;;;;;;;27.42;8.65;;;3.90;99.90;;;;;;5047663;28;20071;-73
2021/04/05 03:36:42;;;;;;;25.92;9.18;;;3.90;99.90;;;;;;5047387;28;20037;-73
2021/04/05 03:39:10;;;;;;;27.73;8.80;;;3.90;99.90;;;;;;5046292;28;20041;-73
2021/04/05 03:42:06;;;;;;;18.95;8.13;;;4.00;99.90;;;;;;5047377;28;20032;-73
2021/04/05 03:44:49;;;;;;;20.48;7.82;;;4.00;99.90;;;;;;5046634;28;20198;-73
2021/04/05 03:48:11;;;;;;;16.58;8.10;;;3.90;99.90;;;;;;5030568;28;20029;-73
2021/04/05 03:51:06;;;;;;;17.50;8.63;;;4.00;99.90;;;;;;5035960;28;20030;-73
2021/04/05 03:53:56;;;;;;;19.55;7.70;;;4.00;99.90;;;;;;5051152;28;20043;-73
2021/04/05 03:56:51;;;;;;;28.27;9.00;;;4.00;99.90;;;;;;5035435;28;20099;-73
2021/04/05 03:59:35;;;;;;;16.15;8.43;;;4.00;99.90;;;;;;5050338;28;20033;-73
2021/04/05 04:02:14;;;;;;;23.17;8.23;;;4.00;99.90;;;;;;5050191;28;20061;-73
2021/04/05 04:04:54;;;;;;;25.27;9.00;;;4.00;99.90;;;;;;5034647;28;20036;-72
2021/04/05 04:10:13;;;;;;;17.95;8.10;;;4.10;99.90;;;;;;5048598;28;20029;-73
2021/04/05 04:12:42;;;;;;;21.60;7.35;;;4.10;99.90;;;;;;5050774;28;20043;-72
2021/04/05 04:15:11;;;;;;;22.85;7.63;;;4.10;99.90;;;;;;5034226;28;20030;-72
2021/04/05 04:17:37;;;;;;;21.17;8.32;;;4.10;99.90;;;;;;5050696;28;20037;-72
2021/04/05 04:20:09;;;;;;;19.83;7.72;;;4.10;99.90;;;;;;5035438;28;20030;-72
2021/04/05 04:22:36;;;;;;;19.17;7.90;;;4.10;99.90;;;;;;5049980;28;20053;-72
2021/04/05 04:25:04;;;;;;;19.80;7.28;;;4.20;99.90;;;;;;5035411;28;20041;-72
2021/04/05 04:27:30;;;;;;;16.23;7.40;;;4.20;99.90;;;;;;5034858;28;20470;-72
2021/04/05 04:29:57;;;;;;;24.15;7.97;;;4.10;99.90;;;;;;5035202;28;20064;-72
2021/04/05 04:32:24;;;;;;;18.08;7.38;;;4.20;99.90;;;;;;5050146;28;20128;-72
2021/04/05 04:34:51;;;;;;;13.27;6.47;;;4.30;99.90;;;;;;5050472;28;20032;-72
2021/04/05 04:37:18;;;;;;;20.45;7.07;;;4.50;99.90;;;;;;5034893;28;20057;-72
2021/04/05 04:39:44;;;;;;;17.23;7.38;;;4.60;99.90;;;;;;5033822;28;20380;-73
2021/04/05 04:42:11;;;;;;;14.15;6.50;;;4.70;99.90;;;;;;5034997;28;20044;-72
2021/04/05 04:44:38;;;;;;;18.30;7.82;;;4.70;99.90;;;;;;5034755;28;20444;-72
2021/04/05 04:47:04;;;;;;;14.05;7.20;;;4.80;99.90;;;;;;5034553;28;20090;-72
2021/04/05 04:49:30;;;;;;;16.42;6.05;;;4.60;99.90;;;;;;5034878;28;20421;-73
2021/04/05 04:51:56;;;;;;;23.05;7.88;;;4.60;99.90;;;;;;5034575;28;20038;-73
2021/04/05 04:54:22;;;;;;;23.05;6.47;;;4.60;99.90;;;;;;5034708;28;20060;-72
2021/04/05 04:56:48;;;;;;;20.65;8.25;;;4.70;99.90;;;;;;5050025;28;20119;-72
2021/04/05 04:59:15;;;;;;;18.23;6.88;;;4.70;99.90;;;;;;5049658;28;20029;-72
2021/04/05 05:01:45;;;;;;;14.48;6.55;;;4.80;99.90;;;;;;5049948;28;20056;-72
2021/04/05 05:04:30;;;;;;;20.40;7.10;;;4.90;99.90;;;;;;5034684;28;20026;-72
2021/04/05 05:07:00;;;;;;;18.02;6.50;;;5.10;99.90;;;;;;5049339;28;20049;-72
2021/04/05 05:09:26;;;;;;;17.58;6.60;;;5.20;99.90;;;;;;5049689;28;20045;-73
2021/04/05 05:11:53;;;;;;;17.55;6.53;;;5.10;99.90;;;;;;5034455;28;20071;-73
2021/04/05 05:14:20;;;;;;;22.45;7.13;;;5.10;99.90;;;;;;5049679;28;20447;-73
2021/04/05 05:16:46;;;;;;;14.23;6.90;;;5.00;99.90;;;;;;5034255;28;20128;-72
2021/04/05 05:19:14;;;;;;;15.15;7.20;;;5.00;99.90;;;;;;5034291;28;20034;-72
2021/04/05 05:21:56;;;;;;;16.95;7.35;;;4.90;99.90;;;;;;5049309;28;20490;-73
2021/04/05 05:24:28;;;;;;;23.30;7.55;;;4.90;99.90;;;;;;5032561;28;20061;-73
2021/04/05 05:26:55;;;;;;;28.80;7.88;;;4.90;99.90;;;;;;5048710;28;20041;-73
2021/04/05 05:29:23;;;;;;;18.38;7.60;;;4.90;99.90;;;;;;5049310;28;20033;-73
2021/04/05 05:31:49;;;;;;;16.13;6.18;;;4.90;99.90;;;;;;5034088;28;20505;-73
2021/04/05 05:34:25;;;;;;;23.88;7.82;;;5.00;99.90;;;;;;5049453;28;20033;-72
2021/04/05 05:36:51;;;;;;;22.23;7.32;;;5.10;99.90;;;;;;5033703;28;20056;-73
2021/04/05 05:39:18;;;;;;;14.30;6.50;;;5.30;99.90;;;;;;5049286;28;20431;-72
2021/04/05 05:42:13;;;;;;;15.80;6.72;;;5.50;99.90;;;;;;5033558;28;20029;-72
2021/04/05 05:44:42;;;;;;;20.73;7.53;;;5.70;99.90;;;;;;5033666;28;20383;-72
2021/04/05 05:48:15;;;;;;;22.90;6.72;;;5.90;99.90;;;;;;5032687;28;20041;-72
2021/04/05 05:51:22;;;;;;;14.30;6.78;;;6.10;99.90;;;;;;5063245;28;20029;-72
2021/04/05 05:54:28;;;;;;;23.92;7.72;;;6.30;99.90;;;;;;5053587;28;20045;-72
2021/04/05 05:57:03;;;;;;;18.38;7.47;;;6.40;99.90;;;;;;5052001;28;20115;-72
2021/04/05 06:00:06;;;;;;;22.73;6.90;;;6.60;99.90;;;;;;5053427;28;20478;-74
2021/04/05 06:02:59;;;;;;;19.83;7.32;;;6.70;99.90;;;;;;5053025;28;20115;-69
2021/04/05 06:05:37;;;;;;;23.75;8.27;;;6.70;99.90;;;;;;5046416;28;20083;-70
2021/04/05 06:08:50;;;;;;;28.88;8.70;;;6.80;99.90;;;;;;5066029;28;21874;-70
2021/04/05 06:11:35;;;;;;;21.77;8.02;;;6.90;99.90;;;;;;5033277;28;20072;-71
2021/04/05 06:14:22;;;;;;;24.35;9.68;;;7.00;99.90;;;;;;5046330;28;20111;-70
2021/04/05 06:17:38;;;;;;;26.38;9.73;;;7.30;99.90;;;;;;5046670;28;20033;-71
2021/04/05 06:20:41;;;;;;;31.13;10.77;;;7.50;99.90;;;;;;5029425;28;20123;-71
2021/04/05 06:23:29;;;;;;;24.95;9.88;;;7.50;99.90;;;;;;5053035;28;20037;-71
2021/04/05 06:26:33;;;;;;;24.55;10.02;;;7.50;99.90;;;;;;5048442;28;20029;-71
2021/04/05 06:29:18;;;;;;;24.35;11.02;;;7.60;99.90;;;;;;5050108;28;20036;-69
2021/04/05 06:32:39;;;;;;;24.45;10.95;;;7.70;99.90;;;;;;5051575;28;20113;-74
2021/04/05 06:35:10;;;;;;;25.60;10.30;;;7.70;99.90;;;;;;5031795;28;20055;-72
2021/04/05 06:37:42;;;;;;;;;;;7.80;99.90;;;;;;5038645;28;20033;-72
2021/04/05 06:40:12;;;;;;;;;;;7.80;99.90;;;;;;5047734;28;19983;-73
2021/04/05 06:43:29;;;;;;;25.48;10.98;;;7.80;99.90;;;;;;5046826;28;19999;-73
2021/04/05 06:46:31;;;;;;;30.02;11.73;;;7.80;99.90;;;;;;5045637;28;20126;-73
2021/04/05 06:49:02;;;;;;;29.35;11.50;;;8.10;99.90;;;;;;5055939;28;20374;-73
2021/04/05 06:52:00;;;;;;;28.85;12.20;;;8.00;99.90;;;;;;5031296;28;20030;-73
2021/04/05 06:55:04;;;;;;;26.35;11.02;;;8.20;99.90;;;;;;5032604;28;20067;-73
2021/04/05 06:58:12;;;;;;;24.52;11.55;;;8.30;99.90;;;;;;5032275;28;20390;-74
2021/04/05 07:00:50;;;;;;;29.20;12.02;;;8.30;99.90;;;;;;5004089;28;20120;-75
2021/04/05 07:03:58;;;;;;;28.55;12.68;;;8.10;99.90;;;;;;5032041;28;20037;-77
2021/04/05 07:06:46;;;;;;;28.45;14.00;;;8.10;99.90;;;;;;5031774;28;20053;-73
2021/04/05 07:09:53;;;;;;;30.40;13.48;;;8.20;99.90;;;;;;5040413;28;20107;-74
2021/04/05 07:12:50;;;;;;;31.98;13.27;;;8.20;99.90;;;;;;5041094;28;20026;-75
2021/04/05 07:15:41;;;;;;;21.70;10.75;;;8.10;99.90;;;;;;5047057;28;20036;-76
2021/04/05 07:18:34;;;;;;;41.08;14.13;;;8.30;99.90;;;;;;5046765;28;20040;-74
2021/04/05 07:21:37;;;;;;;31.15;14.60;;;8.30;99.90;;;;;;5043033;28;20057;-75
2021/04/05 07:24:27;;;;;;;30.40;12.55;;;8.30;99.90;;;;;;5036520;28;20041;-74
2021/04/05 07:27:16;;;;;;;28.17;13.07;;;8.30;99.90;;;;;;5034728;28;20041;-75
2021/04/05 07:30:03;;;;;;;29.38;13.45;;;8.20;99.90;;;;;;5049309;28;20041;-76
2021/04/05 07:33:09;;;;;;;28.65;12.93;;;8.10;99.90;;;;;;5052524;28;20083;-74
2021/04/05 07:36:04;;;;;;;25.02;11.63;;;8.20;99.90;;;;;;5049978;28;20470;-76
2021/04/05 07:39:24;;;;;;;45.60;13.15;;;8.30;99.90;;;;;;5075629;28;20028;-76
2021/04/05 07:42:04;;;;;;;30.90;14.23;;;8.40;99.90;;;;;;5075887;28;20063;-76
2021/04/05 07:44:45;;;;;;;26.13;12.20;;;8.30;99.90;;;;;;5054777;28;20104;-76
2021/04/05 07:47:14;;;;;;;30.75;12.20;;;8.30;99.90;;;;;;5059872;28;20492;-76
2021/04/05 07:50:22;;;;;;;35.30;14.27;;;8.30;99.90;;;;;;5075484;28;20037;-76
2021/04/05 07:53:35;;;;;;;35.03;14.48;;;8.20;99.90;;;;;;5075595;28;20028;-77
2021/04/05 07:56:21;;;;;;;29.00;12.05;;;8.30;99.90;;;;;;5058909;28;20029;-77
2021/04/05 07:59:28;;;;;;;25.55;11.23;;;8.40;99.90;;;;;;5075587;28;20028;-77
2021/04/05 08:02:15;;;;;;;27.63;12.90;;;8.50;99.90;;;;;;5074539;28;20028;-78
2021/04/05 08:05:24;;;;;;;23.65;10.00;;;8.40;99.90;;;;;;5075404;28;20409;-77
2021/04/05 08:07:52;;;;;;;28.15;10.40;;;8.30;99.90;;;;;;5060433;28;20058;-77
2021/04/05 08:11:00;;;;;;;22.75;10.63;;;8.40;99.90;;;;;;5053852;28;20029;-77
2021/04/05 08:13:50;;;;;;;23.92;11.43;;;8.40;99.90;;;;;;5046876;28;20398;-77
2021/04/05 08:16:41;;;;;;;32.83;12.38;;;8.50;99.90;;;;;;5045091;28;20475;-77
2021/04/05 08:19:22;;;;;;;33.47;13.18;;;8.60;99.90;;;;;;5047329;28;20381;-75
2021/04/05 08:22:09;;;;;;;28.33;10.85;;;8.60;99.90;;;;;;5054096;28;20041;-73
2021/04/05 08:25:25;;;;;;;28.80;11.05;;;8.50;99.90;;;;;;5053924;28;20112;-72
2021/04/05 08:28:22;;;;;;;20.67;10.00;;;8.50;99.90;;;;;;5049801;28;20532;-72
2021/04/05 08:31:28;;;;;;;28.25;12.18;;;8.50;99.90;;;;;;5043991;28;20033;-74
2021/04/05 08:34:27;;;;;;;23.92;9.52;;;8.30;99.90;;;;;;5034490;28;20030;-72
2021/04/05 08:37:13;;;;;;;31.15;12.32;;;8.30;99.90;;;;;;5048425;28;20043;-74
2021/04/05 08:40:22;;;;;;;25.00;10.65;;;8.30;99.90;;;;;;5074954;28;20069;-74
2021/04/05 08:43:21;;;;;;;28.42;11.43;;;8.40;99.90;;;;;;5074732;28;20544;-74
2021/04/05 08:46:12;;;;;;;31.80;12.40;;;8.60;99.90;;;;;;5073664;28;20032;-74
2021/04/05 08:49:00;;;;;;;27.60;12.07;;;8.50;99.90;;;;;;5073478;28;20029;-73
2021/04/05 08:51:40;;;;;;;25.25;10.18;;;8.30;99.90;;;;;;5070769;28;20025;-72
2021/04/05 08:54:07;;;;;;;26.83;10.80;;;8.40;99.90;;;;;;5049517;28;20029;-79
2021/04/05 08:56:43;;;;;;;24.27;9.07;;;8.30;99.90;;;;;;5053558;28;20036;-72
2021/04/05 08:59:22;;;;;;;19.33;10.63;;;8.50;99.90;;;;;;5044824;28;20037;-72
2021/04/05 09:02:04;;;;;;;23.90;11.10;;;8.60;99.90;;;;;;5034111;28;20076;-73
2021/04/05 09:04:31;;;;;;;28.83;12.05;;;8.40;99.90;;;;;;5036944;28;20035;-70
2021/04/05 09:07:27;;;;;;;27.88;11.40;;;8.50;99.90;;;;;;5050925;28;20140;-72
2021/04/05 09:09:58;;;;;;;29.10;11.55;;;8.50;99.90;;;;;;5049104;28;20028;-74
2021/04/05 09:12:26;;;;;;;30.52;12.98;;;8.50;99.90;;;;;;5054534;28;20025;-75
2021/04/05 09:15:27;;;;;;;36.45;12.27;;;8.50;99.90;;;;;;5052473;28;20432;-72
2021/04/05 09:18:35;;;;;;;32.35;12.48;;;8.30;99.90;;;;;;5050882;28;20033;-73
2021/04/05 09:21:41;;;;;;;30.73;11.43;;;8.50;99.90;;;;;;5008818;28;20040;-76
2021/04/05 09:24:52;;;;;;;32.33;12.32;;;8.50;99.90;;;;;;5033622;28;20045;-73
2021/04/05 09:28:25;;;;;;;26.55;11.68;;;8.30;99.90;;;;;;5033810;28;20036;-74
2021/04/05 09:31:00;;;;;;;31.65;13.10;;;8.30;99.90;;;;;;4988842;28;20037;-74
2021/04/05 09:33:41;;;;;;;25.90;12.73;;;8.30;99.90;;;;;;5033936;28;20168;-74
2021/04/05 09:36:32;;;;;;;34.60;12.60;;;8.30;99.90;;;;;;5033777;28;20411;-74
2021/04/05 09:39:08;;;;;;;32.88;12.40;;;8.30;99.90;;;;;;5053606;28;20025;-74
2021/04/05 09:42:05;;;;;;;29.75;12.35;;;8.40;99.90;;;;;;5052050;28;20406;-73
2021/04/05 09:45:37;;;;;;;34.40;13.43;;;8.50;99.90;;;;;;5055732;28;20083;-74
2021/04/05 09:48:23;;;;;;;;;;;8.50;99.90;;;;;;4992082;28;20034;-74
2021/04/05 09:51:28;;;;;;;29.65;11.80;;;8.40;99.90;;;;;;5046650;28;19919;-73
2021/04/05 09:54:15;;;;;;;31.63;13.80;;;8.50;99.90;;;;;;5052546;28;20051;-74
2021/04/05 09:56:55;;;;;;;37.35;12.82;;;8.60;99.90;;;;;;5052961;28;20037;-74
2021/04/05 09:59:35;;;;;;;40.58;14.10;;;8.60;99.90;;;;;;5053286;28;20060;-73
2021/04/05 10:02:01;;;;;;;35.92;15.23;;;8.70;99.90;;;;;;5051835;28;20500;-73
2021/04/05 10:04:29;;;;;;;31.92;13.43;;;8.50;99.90;;;;;;5051911;28;20032;-78
2021/04/05 10:06:57;;;;;;;34.08;15.48;;;8.60;99.90;;;;;;5058253;28;20048;-77
2021/04/05 10:09:30;;;;;;;29.00;12.48;;;8.60;99.90;;;;;;5071984;28;20040;-76
2021/04/05 10:12:05;;;;;;;32.97;13.57;;;8.50;99.90;;;;;;5071354;28;20052;-76
2021/04/05 10:14:31;;;;;;;35.03;12.38;;;8.50;99.90;;;;;;5071757;28;20031;-70
2021/04/05 10:16:59;;;;;;;28.35;14.38;;;8.50;99.90;;;;;;5042675;28;20029;-69
2021/04/05 10:19:34;;;;;;;36.38;13.93;;;8.50;99.90;;;;;;5021367;28;20449;-72
2021/04/05 10:22:13;;;;;;;33.40;14.77;;;8.70;99.90;;;;;;5051744;28;20087;-73
2021/04/05 10:24:43;;;;;;;37.03;13.73;;;8.50;99.90;;;;;;5045530;28;20382;-73
2021/04/05 10:27:16;;;;;;;33.17;13.65;;;8.60;99.90;;;;;;5048285;28;20060;-73
2021/04/05 10:29:46;;;;;;;33.67;12.82;;;8.60;99.90;;;;;;5032821;28;20025;-74
2021/04/05 10:32:22;;;;;;;31.67;13.60;;;8.70;99.90;;;;;;5048052;28;20128;-73
2021/04/05 10:34:57;;;;;;;34.65;15.30;;;8.70;99.90;;;;;;5052004;28;20061;-73
2021/04/05 10:37:34;;;;;;;34.80;11.18;;;8.70;99.90;;;;;;5061919;28;20047;-74
2021/04/05 10:40:02;;;;;;;34.00;13.48;;;8.70;99.90;;;;;;5055334;28;20029;-74
2021/04/05 10:42:38;;;;;;;30.15;12.63;;;8.70;99.90;;;;;;5071485;28;20242;-74
2021/04/05 10:45:10;;;;;;;32.95;12.63;;;8.80;99.90;;;;;;5054906;28;20032;-74
2021/04/05 10:48:39;;;;;;;43.50;14.15;;;8.70;99.90;;;;;;5072204;28;20379;-74
2021/04/05 10:51:17;;;;;;;33.67;12.55;;;8.60;99.90;;;;;;4985585;28;20125;-75
2021/04/05 10:53:47;;;;;;;29.60;12.43;;;8.60;99.90;;;;;;5031333;28;20033;-75
2021/04/05 10:56:14;;;;;;;32.53;13.30;;;8.70;99.90;;;;;;5031140;28;20034;-75
2021/04/05 10:59:02;;;;;;;32.75;13.50;;;8.70;99.90;;;;;;5031002;28;20534;-75
2021/04/05 11:01:31;;;;;;;39.10;13.57;;;8.70;99.90;;;;;;5031266;28;20033;-76
2021/04/05 11:03:59;;;;;;;32.42;12.95;;;8.70;99.90;;;;;;5031238;28;20033;-76
2021/04/05 11:06:30;;;;;;;36.95;14.07;;;8.70;99.90;;;;;;5036696;28;20127;-74
2021/04/05 11:09:05;;;;;;;30.05;13.65;;;8.70;99.90;;;;;;5070500;28;20148;-74
2021/04/05 11:11:32;;;;;;;27.77;11.70;;;8.70;99.90;;;;;;5071161;28;20439;-76
2021/04/05 11:14:14;;;;;;;27.88;12.82;;;8.60;99.90;;;;;;5070865;28;20028;-74
2021/04/05 11:16:54;;;;;;;25.27;10.32;;;8.70;99.90;;;;;;5070522;28;20051;-74
2021/04/05 11:19:49;;;;;;;26.48;12.77;;;8.80;99.90;;;;;;5071989;28;20416;-74
2021/04/05 11:22:26;;;;;;;28.63;10.63;;;8.70;99.90;;;;;;5072339;28;20030;-74
2021/04/05 11:25:21;;;;;;;30.85;10.52;;;8.70;99.90;;;;;;5071028;28;20473;-74
2021/04/05 11:27:53;;;;;;;33.60;12.02;;;8.70;99.90;;;;;;5069521;28;20047;-74
2021/04/05 11:30:30;;;;;;;20.23;8.93;;;8.70;99.90;;;;;;5071097;28;20056;-73
2021/04/05 11:32:57;;;;;;;22.25;8.68;;;8.80;99.90;;;;;;5034354;28;20025;-75
2021/04/05 11:35:33;;;;;;;26.88;10.35;;;8.80;99.90;;;;;;5036865;28;20041;-73
2021/04/05 11:38:11;;;;;;;33.40;11.43;;;8.80;99.90;;;;;;5059062;28;20047;-74
2021/04/05 11:40:38;;;;;;;26.92;11.75;;;8.90;99.90;;;;;;5066948;28;20036;-75
2021/04/05 11:43:16;;;;;;;31.92;11.45;;;8.90;99.90;;;;;;5061842;28;20037;-75
2021/04/05 11:45:51;;;;;;;28.33;11.82;;;8.80;99.90;;;;;;5048502;28;20118;-74
2021/04/05 11:48:27;;;;;;;28.30;11.73;;;8.80;99.90;;;;;;5049443;28;20359;-74
2021/04/05 11:50:53;;;;;;;23.95;10.48;;;8.80;99.90;;;;;;5050677;28;20143;-74
2021/04/05 11:53:48;;;;;;;25.15;9.90;;;8.80;99.90;;;;;;5051865;28;20075;-73
2021/04/05 11:56:16;;;;;;;28.45;9.07;;;8.90;99.90;;;;;;5050925;28;20370;-77
2021/04/05 11:59:08;;;;;;;20.63;8.30;;;8.80;99.90;;;;;;5051870;28;20040;-79
2021/04/05 12:01:42;;;;;;;;;;;8.70;99.90;;;;;;5035122;28;20113;-78
2021/04/05 12:04:22;;;;;;;20.90;9.02;;;8.60;99.90;;;;;;5042273;28;19963;-79
2021/04/05 12:06:58;;;;;;;19.85;9.38;;;8.60;99.90;;;;;;5014001;28;20508;-79
2021/04/05 12:09:38;;;;;;;21.15;8.82;;;8.60;99.90;;;;;;5033242;28;20037;-80
2021/04/05 12:12:07;;;;;;;18.65;9.00;;;8.50;99.90;;;;;;5034401;28;20033;-78
2021/04/05 12:14:35;;;;;;;21.58;9.23;;;8.50;99.90;;;;;;5001879;28;20041;-79
2021/04/05 12:17:03;;;;;;;27.17;9.05;;;8.40;99.90;;;;;;5033729;28;20033;-78
2021/04/05 12:19:36;;;;;;;20.15;8.77;;;8.40;99.90;;;;;;5036929;28;20052;-76
2021/04/05 12:22:04;;;;;;;22.05;9.32;;;8.40;99.90;;;;;;5053379;28;20596;-76
2021/04/05 12:24:33;;;;;;;18.90;10.38;;;8.40;99.90;;;;;;5052214;28;20029;-76
2021/04/05 12:27:07;;;;;;;23.30;9.43;;;8.40;99.90;;;;;;5050640;28;20039;-75
2021/04/05 12:29:34;;;;;;;17.17;9.25;;;8.20;99.90;;;;;;5064473;28;20503;-75
2021/04/05 12:32:05;;;;;;;23.13;9.88;;;8.10;99.90;;;;;;5053470;28;20037;-75
2021/04/05 12:34:37;;;;;;;21.23;8.82;;;8.00;99.90;;;;;;5053974;28;20137;-75
2021/04/05 12:37:17;;;;;;;22.90;10.05;;;7.90;99.90;;;;;;5078149;28;20048;-76
2021/04/05 12:39:49;;;;;;;18.52;9.88;;;7.80;99.90;;;;;;5073641;28;20029;-77
2021/04/05 12:42:15;;;;;;;21.52;9.57;;;7.70;99.90;;;;;;5071110;28;20044;-75
2021/04/05 12:44:44;;;;;;;19.52;8.85;;;7.70;99.90;;;;;;5033797;28;20034;-76
2021/04/05 12:47:12;;;;;;;21.15;9.48;;;7.60;99.90;;;;;;5049169;28;20040;-77
2021/04/05 12:49:45;;;;;;;14.80;8.48;;;7.60;99.90;;;;;;5053386;28;20033;-76
2021/04/05 12:52:21;;;;;;;15.18;8.25;;;7.60;99.90;;;;;;5034592;28;20497;-75
2021/04/05 12:54:53;;;;;;;17.60;8.57;;;7.50;99.90;;;;;;5049888;28;20029;-77
2021/04/05 12:57:33;;;;;;;17.15;9.30;;;7.30;99.90;;;;;;5050117;28;20086;-74
2021/04/05 13:00:02;;;;;;;17.37;9.57;;;7.30;99.90;;;;;;5058264;28;20048;-75
2021/04/05 13:02:34;;;;;;;15.60;7.75;;;7.30;99.90;;;;;;5053155;28;20294;-78
2021/04/05 13:05:15;;;;;;;17.05;8.98;;;7.30;99.90;;;;;;5052626;28;20159;-78
2021/04/05 13:08:25;;;;;;;;;;;7.40;99.90;;;;;;5066640;28;20048;-76
2021/04/05 13:11:03;;;;;;;5.28;3.25;;;7.40;99.90;;;;;;4992448;28;19921;-77
2021/04/05 13:13:35;;;;;;;6.45;1.83;;;7.00;99.90;;;;;;5066148;28;20040;-79
2021/04/05 13:16:17;;;;;;;2.72;1.40;;;6.10;99.90;;;;;;5073052;28;20032;-76
2021/04/05 13:18:50;;;;;;;1.63;1.10;;;5.50;99.90;;;;;;5064940;28;20033;-77
2021/04/05 13:21:18;;;;;;;4.03;1.00;;;5.00;99.90;;;;;;5052561;28;20032;-75
2021/04/05 13:23:57;;;;;;;4.40;1.15;;;4.80;99.90;;;;;;5036245;28;20478;-77
2021/04/05 13:26:59;;;;;;;2.22;0.93;;;4.60;99.90;;;;;;5053673;28;20124;-78
2021/04/05 13:29:36;;;;;;;2.55;1.25;;;4.50;99.90;;;;;;5052839;28;20033;-78
2021/04/05 13:32:08;;;;;;;1.45;1.20;;;4.40;99.90;;;;;;5052791;28;20110;-80
2021/04/05 13:34:37;;;;;;;4.55;2.00;;;4.40;99.90;;;;;;5036553;28;20090;-78
2021/04/05 13:37:15;;;;;;;4.25;1.58;;;4.20;99.90;;;;;;5060803;28;20033;-55
2021/04/05 13:39:44;;;;;;;2.67;1.15;;;4.20;99.90;;;;;;5069001;28;20032;-62
2021/04/05 13:42:21;;;;;;;2.17;1.10;;;4.40;99.90;;;;;;5073606;28;20072;-76
2021/04/05 13:44:52;;;;;;;3.80;0.80;;;4.60;99.90;;;;;;5052945;28;20033;-77